createdAt,value
2023-08-23T00:00:15.904Z,18.97
2023-08-23T00:01:23.424Z,18.99
2023-08-23T00:02:17.993Z,18.99
2023-08-23T00:03:15.972Z,19.01
2023-08-23T00:04:15.813Z,18.97
2023-08-23T00:05:15.812Z,18.97
2023-08-23T00:06:17.233Z,18.99
2023-08-23T00:07:17.284Z,18.99
2023-08-23T00:08:16.925Z,18.97
2023-08-23T00:09:16.991Z,18.99
2023-08-23T00:10:17.581Z,18.96
2023-08-23T00:11:17.057Z,18.93
2023-08-23T00:12:15.719Z,18.93
2023-08-23T00:13:16.259Z,18.90
2023-08-23T00:14:16.336Z,18.90
2023-08-23T00:15:15.726Z,18.89
2023-08-23T00:16:16.503Z,18.86
2023-08-23T00:17:20.749Z,18.82
2023-08-23T00:18:16.714Z,18.78
2023-08-23T00:19:18.338Z,18.76
2023-08-23T00:20:17.944Z,18.74
2023-08-23T00:21:18.530Z,18.72
2023-08-23T00:22:17.023Z,18.72
2023-08-23T00:23:15.645Z,18.71
2023-08-23T00:24:15.633Z,18.71
2023-08-23T00:25:16.886Z,18.71
2023-08-23T00:26:16.399Z,18.66
2023-08-23T00:27:17.060Z,18.66
2023-08-23T00:28:16.428Z,18.65
2023-08-23T00:29:16.611Z,18.65
2023-08-23T00:30:16.763Z,18.64
2023-08-23T00:31:17.425Z,18.64
2023-08-23T00:32:16.849Z,18.64
2023-08-23T00:33:15.582Z,18.64
2023-08-23T00:34:17.641Z,18.62
2023-08-23T00:35:17.776Z,18.62
2023-08-23T00:36:16.749Z,18.64
2023-08-23T00:37:15.812Z,18.64
2023-08-23T00:38:16.519Z,18.60
2023-08-23T00:39:16.707Z,18.56
2023-08-23T00:40:16.739Z,18.54
2023-08-23T00:41:16.737Z,18.50
2023-08-23T00:42:15.396Z,18.47
2023-08-23T00:43:19.707Z,18.46
2023-08-23T00:44:16.705Z,18.44
2023-08-23T00:45:16.830Z,18.42
2023-08-23T00:46:17.938Z,18.41
2023-08-23T00:47:16.560Z,18.39
2023-08-23T00:48:18.220Z,18.39
2023-08-23T00:49:15.315Z,18.41
2023-08-23T00:50:15.247Z,18.41
2023-08-23T00:51:16.021Z,18.41
2023-08-23T00:52:16.675Z,18.42
2023-08-23T00:53:16.294Z,18.41
2023-08-23T00:54:17.546Z,18.42
2023-08-23T00:55:17.103Z,18.44
2023-08-23T00:56:16.121Z,18.44
2023-08-23T00:57:15.152Z,18.44
2023-08-23T00:58:15.147Z,18.46
2023-08-23T00:59:16.509Z,18.47
2023-08-23T01:00:16.615Z,18.47
2023-08-23T01:01:16.882Z,18.46
2023-08-23T01:02:16.398Z,18.47
2023-08-23T01:03:16.426Z,18.47
2023-08-23T01:04:15.085Z,18.47
2023-08-23T01:05:16.748Z,18.46
2023-08-23T01:06:15.158Z,18.47
2023-08-23T01:07:17.057Z,18.46
2023-08-23T01:08:15.549Z,18.44
2023-08-23T01:09:16.165Z,18.44
2023-08-23T01:10:16.286Z,18.42
2023-08-23T01:11:17.486Z,18.38
2023-08-23T01:12:14.985Z,18.35
2023-08-23T01:13:17.182Z,18.35
2023-08-23T01:14:16.248Z,18.35
2023-08-23T01:15:15.075Z,18.32
2023-08-23T01:16:15.210Z,18.29
2023-08-23T01:17:16.098Z,18.29
2023-08-23T01:18:16.180Z,18.31
2023-08-23T01:19:16.223Z,18.29
2023-08-23T01:20:16.404Z,18.29
2023-08-23T01:21:14.838Z,18.29
2023-08-23T01:22:15.378Z,18.26
2023-08-23T01:23:16.138Z,18.25
2023-08-23T01:24:14.836Z,18.21
2023-08-23T01:25:16.361Z,18.20
2023-08-23T01:26:16.452Z,18.20
2023-08-23T01:27:15.906Z,18.20
2023-08-23T01:28:16.065Z,18.19
2023-08-23T01:29:15.183Z,18.19
2023-08-23T01:30:15.308Z,18.17
2023-08-23T01:31:14.787Z,18.17
2023-08-23T01:32:17.090Z,18.14
2023-08-23T01:33:15.981Z,18.11
2023-08-23T01:34:15.489Z,18.09
2023-08-23T01:35:19.300Z,18.05
2023-08-23T01:36:15.818Z,18.07
2023-08-23T01:37:19.039Z,18.05
2023-08-23T01:38:15.897Z,18.04
2023-08-23T01:39:14.625Z,18.04
2023-08-23T01:40:14.596Z,18.02
2023-08-23T01:41:14.601Z,18.02
2023-08-23T01:42:14.606Z,18.04
2023-08-23T01:43:15.788Z,18.02
2023-08-23T01:44:15.862Z,18.04
2023-08-23T01:45:15.984Z,18.01
2023-08-23T01:46:16.197Z,17.98
2023-08-23T01:47:15.583Z,17.95
2023-08-23T01:48:15.685Z,17.91
2023-08-23T01:49:15.968Z,17.87
2023-08-23T01:50:14.456Z,17.84
2023-08-23T01:51:14.432Z,17.83
2023-08-23T01:52:14.448Z,17.81
2023-08-23T01:53:15.513Z,17.79
2023-08-23T01:54:15.589Z,17.77
2023-08-23T01:55:15.656Z,17.77
2023-08-23T01:56:15.689Z,17.77
2023-08-23T01:57:14.352Z,17.77
2023-08-23T01:58:14.378Z,17.77
2023-08-23T01:59:14.356Z,17.79
2023-08-23T02:00:15.749Z,17.84
2023-08-23T02:01:15.837Z,17.87
2023-08-23T02:02:15.394Z,17.87
2023-08-23T02:03:15.590Z,17.92
2023-08-23T02:04:16.183Z,17.94
2023-08-23T02:05:15.578Z,17.94
2023-08-23T02:06:14.276Z,17.92
2023-08-23T02:07:15.435Z,17.89
2023-08-23T02:08:15.549Z,17.84
2023-08-23T02:09:15.200Z,17.80
2023-08-23T02:10:15.382Z,17.79
2023-08-23T02:11:15.262Z,17.79
2023-08-23T02:12:15.419Z,17.79
2023-08-23T02:13:16.574Z,17.79
2023-08-23T02:14:14.156Z,17.76
2023-08-23T02:15:14.114Z,17.76
2023-08-23T02:16:15.482Z,17.74
2023-08-23T02:17:15.523Z,17.76
2023-08-23T02:18:17.450Z,17.76
2023-08-23T02:19:17.311Z,17.73
2023-08-23T02:20:15.853Z,17.70
2023-08-23T02:21:15.334Z,17.68
2023-08-23T02:22:14.039Z,17.65
2023-08-23T02:23:14.036Z,17.62
2023-08-23T02:24:14.075Z,17.58
2023-08-23T02:25:15.461Z,17.57
2023-08-23T02:26:15.106Z,17.54
2023-08-23T02:27:15.280Z,17.53
2023-08-23T02:28:15.184Z,17.51
2023-08-23T02:29:15.335Z,17.53
2023-08-23T02:30:13.980Z,17.55
2023-08-23T02:31:13.985Z,17.54
2023-08-23T02:32:13.951Z,17.57
2023-08-23T02:33:13.873Z,17.55
2023-08-23T02:34:15.434Z,17.57
2023-08-23T02:35:15.058Z,17.60
2023-08-23T02:36:15.198Z,17.60
2023-08-23T02:37:15.326Z,17.62
2023-08-23T02:38:13.791Z,17.63
2023-08-23T02:39:13.799Z,17.60
2023-08-23T02:40:13.791Z,17.60
2023-08-23T02:41:14.946Z,17.58
2023-08-23T02:42:15.344Z,17.60
2023-08-23T02:43:17.234Z,17.58
2023-08-23T02:44:14.915Z,17.58
2023-08-23T02:45:15.070Z,17.60
2023-08-23T02:46:13.756Z,17.58
2023-08-23T02:47:13.721Z,17.58
2023-08-23T02:48:15.115Z,17.57
2023-08-23T02:49:15.154Z,17.54
2023-08-23T02:50:15.273Z,17.53
2023-08-23T02:51:14.752Z,17.51
2023-08-23T02:52:14.921Z,17.49
2023-08-23T02:53:13.658Z,17.45
2023-08-23T02:54:14.223Z,17.46
2023-08-23T02:55:13.636Z,17.42
2023-08-23T02:56:13.631Z,17.42
2023-08-23T02:57:15.482Z,17.38
2023-08-23T02:58:14.748Z,17.36
2023-08-23T02:59:14.801Z,17.33
2023-08-23T03:00:16.406Z,17.35
2023-08-23T03:01:13.596Z,17.35
2023-08-23T03:02:13.521Z,17.33
2023-08-23T03:03:13.480Z,17.33
2023-08-23T03:04:13.483Z,17.30
2023-08-23T03:05:15.000Z,17.28
2023-08-23T03:06:14.624Z,17.27
2023-08-23T03:07:14.751Z,17.27
2023-08-23T03:08:14.916Z,17.24
2023-08-23T03:09:13.394Z,17.25
2023-08-23T03:10:14.602Z,17.25
2023-08-23T03:11:13.396Z,17.21
2023-08-23T03:12:14.873Z,17.21
2023-08-23T03:13:18.541Z,17.20
2023-08-23T03:14:15.113Z,17.18
2023-08-23T03:15:15.253Z,17.18
2023-08-23T03:16:13.327Z,17.14
2023-08-23T03:17:13.314Z,17.09
2023-08-23T03:18:14.026Z,17.03
2023-08-23T03:19:14.686Z,17.03
2023-08-23T03:20:14.279Z,16.98
2023-08-23T03:21:15.386Z,16.90
2023-08-23T03:22:15.052Z,16.85
2023-08-23T03:23:16.129Z,16.82
2023-08-23T03:24:14.182Z,16.81
2023-08-23T03:25:13.238Z,16.80
2023-08-23T03:26:13.916Z,16.80
2023-08-23T03:27:14.561Z,16.80
2023-08-23T03:28:15.013Z,16.75
2023-08-23T03:29:14.184Z,16.70
2023-08-23T03:30:15.059Z,16.67
2023-08-23T03:31:15.127Z,16.60
2023-08-23T03:32:14.164Z,16.60
2023-08-23T03:33:13.070Z,16.59
2023-08-23T03:34:13.156Z,16.60
2023-08-23T03:35:13.237Z,16.63
2023-08-23T03:36:14.626Z,16.66
2023-08-23T03:37:14.174Z,16.67
2023-08-23T03:38:14.384Z,16.70
2023-08-23T03:39:14.517Z,16.70
2023-08-23T03:40:12.993Z,16.70
2023-08-23T03:41:12.992Z,16.69
2023-08-23T03:42:13.015Z,16.70
2023-08-23T03:43:14.472Z,16.67
2023-08-23T03:44:14.094Z,16.67
2023-08-23T03:45:14.229Z,16.65
2023-08-23T03:46:14.346Z,16.66
2023-08-23T03:47:12.917Z,16.63
2023-08-23T03:48:13.389Z,16.65
2023-08-23T03:49:13.535Z,16.67
2023-08-23T03:50:13.705Z,16.70
2023-08-23T03:51:13.860Z,16.70
2023-08-23T03:52:15.124Z,16.75
2023-08-23T03:53:19.305Z,16.73
2023-08-23T03:54:14.098Z,16.73
2023-08-23T03:55:13.223Z,16.73
2023-08-23T03:56:14.429Z,16.75
2023-08-23T03:57:12.766Z,16.72
2023-08-23T03:58:14.231Z,16.70
2023-08-23T03:59:14.314Z,16.69
2023-08-23T04:00:13.768Z,16.69
2023-08-23T04:01:13.919Z,16.66
2023-08-23T04:02:14.102Z,16.66
2023-08-23T04:03:12.827Z,16.67
2023-08-23T04:04:12.753Z,16.66
2023-08-23T04:05:12.761Z,16.66
2023-08-23T04:06:14.185Z,16.66
2023-08-23T04:07:13.799Z,16.65
2023-08-23T04:08:13.764Z,16.66
2023-08-23T04:09:14.654Z,16.67
2023-08-23T04:10:12.585Z,16.67
2023-08-23T04:11:20.389Z,16.67
2023-08-23T04:12:12.595Z,16.67
2023-08-23T04:13:18.656Z,16.65
2023-08-23T04:14:13.697Z,16.66
2023-08-23T04:15:13.870Z,16.65
2023-08-23T04:16:14.487Z,16.65
2023-08-23T04:17:13.559Z,16.65
2023-08-23T04:18:13.742Z,16.62
2023-08-23T04:19:13.789Z,16.60
2023-08-23T04:20:13.959Z,16.59
2023-08-23T04:21:13.626Z,16.55
2023-08-23T04:22:13.737Z,16.52
2023-08-23T04:23:13.858Z,16.48
2023-08-23T04:24:12.429Z,16.47
2023-08-23T04:25:12.422Z,16.45
2023-08-23T04:26:13.682Z,16.44
2023-08-23T04:27:12.425Z,16.41
2023-08-23T04:28:13.372Z,16.37
2023-08-23T04:29:13.542Z,16.37
2023-08-23T04:30:14.140Z,16.36
2023-08-23T04:31:13.602Z,16.33
2023-08-23T04:32:12.517Z,16.33
2023-08-23T04:33:12.351Z,16.27
2023-08-23T04:34:13.058Z,16.27
2023-08-23T04:35:14.191Z,16.25
2023-08-23T04:36:13.878Z,16.26
2023-08-23T04:37:13.981Z,16.22
2023-08-23T04:38:19.290Z,16.22
2023-08-23T04:39:14.229Z,16.16
2023-08-23T04:40:12.249Z,16.14
2023-08-23T04:41:12.195Z,16.11
2023-08-23T04:42:12.191Z,16.07
2023-08-23T04:43:13.698Z,16.07
2023-08-23T04:44:13.373Z,16.07
2023-08-23T04:45:13.282Z,16.06
2023-08-23T04:46:13.499Z,16.03
2023-08-23T04:47:12.121Z,16.04
2023-08-23T04:48:12.129Z,16.04
2023-08-23T04:49:12.896Z,16.06
2023-08-23T04:50:13.082Z,16.07
2023-08-23T04:51:13.601Z,16.07
2023-08-23T04:52:13.240Z,16.03
2023-08-23T04:53:13.369Z,16.01
2023-08-23T04:54:13.440Z,15.99
2023-08-23T04:55:12.029Z,16.01
2023-08-23T04:56:12.029Z,16.01
2023-08-23T04:57:12.042Z,16.01
2023-08-23T04:58:13.426Z,16.03
2023-08-23T04:59:13.048Z,16.03
2023-08-23T05:00:13.118Z,15.99
2023-08-23T05:01:13.785Z,15.98
2023-08-23T05:02:13.189Z,15.98
2023-08-23T05:03:11.876Z,15.99
2023-08-23T05:04:12.496Z,15.98
2023-08-23T05:05:12.070Z,15.98
2023-08-23T05:06:11.963Z,16.01
2023-08-23T05:07:14.382Z,16.04
2023-08-23T05:08:14.504Z,16.06
2023-08-23T05:09:13.031Z,16.04
2023-08-23T05:10:13.184Z,16.07
2023-08-23T05:11:11.795Z,16.08
2023-08-23T05:12:11.790Z,16.10
2023-08-23T05:13:12.488Z,16.11
2023-08-23T05:14:12.544Z,16.13
2023-08-23T05:15:13.128Z,16.14
2023-08-23T05:16:14.293Z,16.14
2023-08-23T05:17:12.756Z,16.17
2023-08-23T05:18:14.509Z,16.18
2023-08-23T05:19:13.586Z,16.16
2023-08-23T05:20:19.915Z,16.16
2023-08-23T05:21:11.706Z,16.14
2023-08-23T05:22:11.669Z,16.13
2023-08-23T05:23:11.645Z,16.11
2023-08-23T05:24:13.082Z,16.08
2023-08-23T05:25:11.767Z,16.08
2023-08-23T05:26:12.828Z,16.10
2023-08-23T05:27:12.958Z,16.08
2023-08-23T05:28:12.994Z,16.11
2023-08-23T05:29:11.548Z,16.13
2023-08-23T05:30:12.806Z,16.17
2023-08-23T05:31:12.955Z,16.18
2023-08-23T05:32:13.015Z,16.23
2023-08-23T05:33:12.710Z,16.25
2023-08-23T05:34:12.774Z,16.27
2023-08-23T05:35:12.910Z,16.30
2023-08-23T05:36:13.009Z,16.30
2023-08-23T05:37:12.057Z,16.33
2023-08-23T05:38:12.029Z,16.34
2023-08-23T05:39:12.814Z,16.37
2023-08-23T05:40:12.924Z,16.37
2023-08-23T05:41:13.013Z,16.42
2023-08-23T05:42:12.445Z,16.47
2023-08-23T05:43:12.570Z,16.48
2023-08-23T05:44:12.738Z,16.51
2023-08-23T05:45:11.868Z,16.55
2023-08-23T05:46:12.108Z,16.57
2023-08-23T05:47:11.934Z,16.60
2023-08-23T05:48:12.715Z,16.59
2023-08-23T05:49:12.287Z,16.63
2023-08-23T05:50:11.550Z,16.65
2023-08-23T05:51:13.514Z,16.66
2023-08-23T05:52:12.484Z,16.69
2023-08-23T05:53:12.646Z,16.70
2023-08-23T05:54:11.249Z,16.70
2023-08-23T05:55:11.232Z,16.75
2023-08-23T05:56:11.256Z,16.77
2023-08-23T05:57:11.233Z,16.78
2023-08-23T05:58:12.712Z,16.78
2023-08-23T05:59:12.313Z,16.81
2023-08-23T06:00:12.430Z,16.85
2023-08-23T06:01:12.419Z,16.91
2023-08-23T06:02:13.542Z,16.91
2023-08-23T06:03:11.276Z,16.95
2023-08-23T06:04:11.085Z,16.98
2023-08-23T06:05:11.071Z,16.98
2023-08-23T06:06:12.554Z,16.99
2023-08-23T06:07:12.308Z,16.98
2023-08-23T06:08:12.343Z,16.99
2023-08-23T06:09:12.470Z,17.00
2023-08-23T06:10:11.075Z,17.02
2023-08-23T06:11:10.993Z,17.02
2023-08-23T06:12:10.999Z,17.03
2023-08-23T06:13:11.745Z,17.05
2023-08-23T06:14:12.494Z,17.05
2023-08-23T06:15:12.101Z,17.07
2023-08-23T06:16:12.693Z,17.07
2023-08-23T06:17:12.125Z,17.12
2023-08-23T06:18:12.346Z,17.14
2023-08-23T06:19:10.921Z,17.15
2023-08-23T06:20:10.915Z,17.20
2023-08-23T06:21:10.915Z,17.22
2023-08-23T06:22:12.273Z,17.22
2023-08-23T06:23:11.806Z,17.25
2023-08-23T06:24:11.977Z,17.28
2023-08-23T06:25:12.133Z,17.32
2023-08-23T06:26:13.240Z,17.32
2023-08-23T06:27:12.432Z,17.36
2023-08-23T06:28:11.372Z,17.40
2023-08-23T06:29:12.077Z,17.40
2023-08-23T06:30:12.138Z,17.42
2023-08-23T06:31:12.235Z,17.47
2023-08-23T06:32:11.709Z,17.49
2023-08-23T06:33:11.888Z,17.53
2023-08-23T06:34:13.152Z,17.54
2023-08-23T06:35:11.651Z,17.57
2023-08-23T06:36:10.687Z,17.58
2023-08-23T06:37:10.692Z,17.58
2023-08-23T06:38:11.481Z,17.62
2023-08-23T06:39:20.137Z,17.65
2023-08-23T06:40:12.783Z,17.71
2023-08-23T06:41:11.904Z,17.74
2023-08-23T06:42:11.940Z,17.76
2023-08-23T06:43:12.039Z,17.80
2023-08-23T06:44:10.602Z,17.83
2023-08-23T06:45:10.639Z,17.84
2023-08-23T06:46:11.471Z,17.89
2023-08-23T06:47:12.081Z,17.92
2023-08-23T06:48:12.073Z,17.95
2023-08-23T06:49:11.666Z,17.98
2023-08-23T06:50:16.448Z,18.01
2023-08-23T06:51:12.890Z,18.05
2023-08-23T06:52:11.428Z,18.09
2023-08-23T06:53:11.683Z,18.13
2023-08-23T06:54:10.441Z,18.17
2023-08-23T06:55:10.446Z,18.23
2023-08-23T06:56:11.925Z,18.29
2023-08-23T06:57:12.509Z,18.35
2023-08-23T06:58:13.108Z,18.36
2023-08-23T06:59:13.208Z,18.41
2023-08-23T07:00:11.847Z,18.46
2023-08-23T07:01:11.399Z,18.47
2023-08-23T07:02:10.894Z,18.50
2023-08-23T07:03:10.445Z,18.54
2023-08-23T07:04:11.153Z,18.57
2023-08-23T07:05:11.767Z,18.60
2023-08-23T07:06:11.263Z,18.65
2023-08-23T07:07:11.458Z,18.69
2023-08-23T07:08:12.604Z,18.72
2023-08-23T07:09:11.483Z,18.76
2023-08-23T07:10:26.947Z,18.82
2023-08-23T07:11:11.649Z,18.86
2023-08-23T07:12:10.218Z,18.91
2023-08-23T07:13:11.010Z,18.93
2023-08-23T07:14:11.656Z,18.99
2023-08-23T07:15:10.325Z,19.06
2023-08-23T07:16:11.432Z,19.09
2023-08-23T07:17:11.398Z,19.13
2023-08-23T07:18:11.704Z,19.17
2023-08-23T07:19:10.656Z,19.21
2023-08-23T07:20:10.733Z,19.24
2023-08-23T07:21:10.880Z,19.27
2023-08-23T07:22:10.106Z,19.32
2023-08-23T07:23:10.915Z,19.34
2023-08-23T07:24:11.068Z,19.39
2023-08-23T07:25:11.243Z,19.43
2023-08-23T07:26:11.386Z,19.45
2023-08-23T07:27:12.510Z,19.49
2023-08-23T07:28:10.437Z,19.55
2023-08-23T07:29:09.947Z,19.58
2023-08-23T07:30:09.949Z,19.61
2023-08-23T07:31:09.988Z,19.64
2023-08-23T07:32:11.416Z,19.67
2023-08-23T07:33:11.088Z,19.71
2023-08-23T07:34:11.143Z,19.72
2023-08-23T07:35:12.223Z,19.79
2023-08-23T07:36:11.478Z,19.82
2023-08-23T07:37:09.871Z,19.85
2023-08-23T07:38:10.490Z,19.87
2023-08-23T07:39:10.666Z,19.94
2023-08-23T07:40:11.382Z,19.98
2023-08-23T07:41:10.986Z,20.01
2023-08-23T07:42:11.583Z,20.04
2023-08-23T07:43:11.045Z,20.08
2023-08-23T07:44:09.791Z,20.13
2023-08-23T07:45:11.137Z,20.15
2023-08-23T07:46:10.589Z,20.19
2023-08-23T07:47:11.172Z,20.22
2023-08-23T07:48:10.865Z,20.30
2023-08-23T07:49:10.949Z,20.34
2023-08-23T07:50:11.051Z,20.37
2023-08-23T07:51:11.047Z,20.41
2023-08-23T07:52:09.715Z,20.48
2023-08-23T07:53:10.237Z,20.50
2023-08-23T07:54:10.340Z,20.53
2023-08-23T07:55:09.636Z,20.56
2023-08-23T07:56:12.141Z,20.60
2023-08-23T07:57:11.138Z,20.63
2023-08-23T07:58:11.673Z,20.69
2023-08-23T07:59:11.761Z,20.72
2023-08-23T08:00:10.828Z,20.75
2023-08-23T08:01:12.463Z,20.78
2023-08-23T08:02:11.513Z,20.81
2023-08-23T08:03:11.623Z,20.87
2023-08-23T08:04:11.080Z,20.91
2023-08-23T08:05:12.188Z,20.94
2023-08-23T08:06:10.172Z,20.97
2023-08-23T08:07:09.468Z,20.98
2023-08-23T08:08:10.969Z,21.05
2023-08-23T08:09:10.983Z,21.08
2023-08-23T08:10:11.073Z,21.11
2023-08-23T08:11:10.656Z,21.15
2023-08-23T08:12:12.213Z,21.22
2023-08-23T08:13:13.147Z,21.27
2023-08-23T08:14:10.388Z,21.34
2023-08-23T08:15:09.921Z,21.38
2023-08-23T08:16:10.151Z,21.42
2023-08-23T08:17:09.419Z,21.48
2023-08-23T08:18:10.243Z,21.52
2023-08-23T08:19:11.169Z,21.58
2023-08-23T08:20:10.440Z,21.63
2023-08-23T08:21:10.530Z,21.67
2023-08-23T08:22:10.631Z,21.71
2023-08-23T08:23:11.241Z,21.71
2023-08-23T08:24:12.310Z,21.79
2023-08-23T08:25:10.121Z,21.81
2023-08-23T08:26:10.391Z,21.85
2023-08-23T08:27:10.472Z,21.90
2023-08-23T08:28:10.576Z,21.91
2023-08-23T08:29:10.806Z,21.96
2023-08-23T08:30:10.771Z,22.01
2023-08-23T08:31:10.428Z,22.06
2023-08-23T08:32:10.433Z,22.08
2023-08-23T08:33:10.581Z,22.14
2023-08-23T08:34:12.107Z,22.19
2023-08-23T08:35:10.186Z,22.21
2023-08-23T08:36:11.562Z,22.26
2023-08-23T08:37:09.776Z,22.27
2023-08-23T08:38:09.876Z,22.35
2023-08-23T08:39:10.470Z,22.39
2023-08-23T08:40:10.549Z,22.42
2023-08-23T08:41:11.689Z,22.45
2023-08-23T08:42:10.261Z,22.44
2023-08-23T08:43:11.860Z,22.46
2023-08-23T08:44:10.330Z,22.49
2023-08-23T08:45:12.004Z,22.51
2023-08-23T08:46:09.578Z,22.52
2023-08-23T08:47:12.143Z,22.52
2023-08-23T08:48:10.205Z,22.54
2023-08-23T08:49:10.269Z,22.57
2023-08-23T08:50:09.755Z,22.60
2023-08-23T08:51:10.362Z,22.61
2023-08-23T08:52:10.982Z,22.63
2023-08-23T08:53:11.566Z,22.64
2023-08-23T08:54:10.645Z,22.69
2023-08-23T08:55:10.750Z,22.69
2023-08-23T08:56:11.831Z,22.70
2023-08-23T08:57:09.338Z,22.74
2023-08-23T08:58:09.433Z,22.75
2023-08-23T08:59:09.556Z,22.78
2023-08-23T09:00:10.145Z,22.78
2023-08-23T09:01:10.230Z,22.82
2023-08-23T09:02:10.267Z,22.86
2023-08-23T09:03:10.977Z,22.89
2023-08-23T09:04:10.005Z,22.94
2023-08-23T09:05:10.079Z,22.96
2023-08-23T09:06:10.609Z,23.01
2023-08-23T09:07:10.848Z,23.03
2023-08-23T09:08:09.219Z,23.07
2023-08-23T09:09:09.337Z,23.07
2023-08-23T09:10:11.947Z,23.12
2023-08-23T09:11:09.510Z,23.12
2023-08-23T09:12:11.062Z,23.15
2023-08-23T09:13:10.062Z,23.18
2023-08-23T09:14:10.186Z,23.21
2023-08-23T09:15:10.241Z,23.22
2023-08-23T09:16:11.405Z,23.22
2023-08-23T09:17:09.966Z,23.23
2023-08-23T09:18:12.629Z,23.23
2023-08-23T09:19:09.539Z,23.25
2023-08-23T09:20:09.596Z,23.29
2023-08-23T09:21:09.203Z,23.31
2023-08-23T09:22:09.284Z,23.32
2023-08-23T09:23:09.849Z,23.37
2023-08-23T09:24:09.500Z,23.42
2023-08-23T09:25:09.797Z,23.49
2023-08-23T09:26:09.598Z,23.52
2023-08-23T09:27:14.943Z,23.52
2023-08-23T09:28:10.837Z,23.54
2023-08-23T09:29:10.406Z,23.54
2023-08-23T09:30:09.158Z,23.54
2023-08-23T09:31:08.459Z,23.59
2023-08-23T09:32:11.136Z,23.62
2023-08-23T09:33:09.269Z,23.64
2023-08-23T09:34:08.595Z,23.64
2023-08-23T09:35:09.843Z,23.60
2023-08-23T09:36:09.903Z,23.60
2023-08-23T09:37:09.500Z,23.62
2023-08-23T09:38:09.568Z,23.64
2023-08-23T09:39:09.634Z,23.67
2023-08-23T09:40:09.746Z,23.69
2023-08-23T09:41:10.269Z,23.72
2023-08-23T09:42:10.362Z,23.78
2023-08-23T09:43:11.025Z,23.84
2023-08-23T09:44:09.018Z,23.90
2023-08-23T09:45:10.601Z,24.00
2023-08-23T09:46:08.340Z,24.06
2023-08-23T09:47:11.881Z,24.16
2023-08-23T09:48:09.794Z,24.23
2023-08-23T09:49:09.445Z,24.27
2023-08-23T09:50:11.019Z,24.34
2023-08-23T09:51:10.528Z,24.36
2023-08-23T09:52:10.684Z,24.37
2023-08-23T09:53:10.590Z,24.31
2023-08-23T09:54:09.172Z,24.27
2023-08-23T09:55:14.849Z,24.24
2023-08-23T09:56:10.346Z,24.24
2023-08-23T09:57:09.952Z,24.26
2023-08-23T09:58:09.491Z,24.26
2023-08-23T09:59:09.052Z,24.30
2023-08-23T10:00:10.224Z,24.30
2023-08-23T10:01:09.768Z,24.30
2023-08-23T10:02:09.859Z,24.29
2023-08-23T10:03:09.472Z,24.29
2023-08-23T10:04:08.590Z,24.33
2023-08-23T10:05:09.445Z,24.41
2023-08-23T10:06:10.620Z,24.44
2023-08-23T10:07:08.118Z,24.42
2023-08-23T10:08:08.637Z,24.45
2023-08-23T10:09:10.123Z,24.46
2023-08-23T10:10:11.013Z,24.46
2023-08-23T10:11:11.124Z,24.46
2023-08-23T10:12:10.189Z,24.51
2023-08-23T10:13:09.284Z,24.46
2023-08-23T10:14:09.638Z,24.46
2023-08-23T10:15:09.874Z,24.52
2023-08-23T10:16:09.558Z,24.59
2023-08-23T10:17:09.578Z,24.63
2023-08-23T10:18:11.200Z,24.75
2023-08-23T10:19:09.891Z,24.82
2023-08-23T10:20:09.750Z,24.87
2023-08-23T10:21:10.386Z,24.92
2023-08-23T10:22:08.357Z,24.94
2023-08-23T10:23:08.919Z,24.97
2023-08-23T10:24:09.941Z,24.89
2023-08-23T10:25:09.681Z,24.89
2023-08-23T10:26:11.750Z,24.89
2023-08-23T10:27:09.769Z,24.93
2023-08-23T10:28:11.900Z,24.94
2023-08-23T10:29:09.461Z,24.97
2023-08-23T10:30:20.689Z,24.99
2023-08-23T10:31:20.025Z,25.01
2023-08-23T10:32:10.729Z,25.05
2023-08-23T10:33:09.854Z,25.05
2023-08-23T10:34:09.804Z,25.11
2023-08-23T10:35:08.837Z,25.14
2023-08-23T10:36:09.991Z,25.26
2023-08-23T10:37:09.961Z,25.31
2023-08-23T10:38:10.649Z,25.42
2023-08-23T10:39:09.272Z,25.53
2023-08-23T10:40:09.705Z,25.63
2023-08-23T10:41:09.850Z,25.69
2023-08-23T10:42:12.088Z,25.72
2023-08-23T10:43:10.597Z,25.60
2023-08-23T10:44:09.585Z,25.57
2023-08-23T10:45:09.072Z,25.57
2023-08-23T10:46:08.544Z,25.57
2023-08-23T10:47:11.427Z,25.63
2023-08-23T10:48:12.373Z,25.69
2023-08-23T10:49:08.189Z,25.66
2023-08-23T10:50:09.470Z,25.64
2023-08-23T10:51:09.047Z,25.60
2023-08-23T10:52:09.123Z,25.57
2023-08-23T10:53:10.208Z,25.53
2023-08-23T10:54:11.404Z,25.56
2023-08-23T10:55:09.270Z,25.56
2023-08-23T10:56:09.458Z,25.59
2023-08-23T10:57:09.996Z,25.71
2023-08-23T10:58:09.571Z,25.76
2023-08-23T10:59:11.137Z,25.78
2023-08-23T11:00:09.548Z,25.82
2023-08-23T11:01:08.690Z,25.83
2023-08-23T11:02:08.848Z,25.82
2023-08-23T11:03:08.152Z,25.78
2023-08-23T11:04:08.915Z,25.82
2023-08-23T11:05:11.119Z,25.89
2023-08-23T11:06:09.105Z,25.97
2023-08-23T11:07:10.145Z,26.03
2023-08-23T11:08:09.858Z,26.12
2023-08-23T11:09:09.343Z,26.09
2023-08-23T11:10:09.420Z,26.09
2023-08-23T11:11:09.619Z,26.16
2023-08-23T11:12:09.571Z,26.20
2023-08-23T11:13:09.618Z,26.20
2023-08-23T11:14:08.191Z,26.28
2023-08-23T11:15:09.811Z,26.31
2023-08-23T11:16:08.856Z,26.34
2023-08-23T11:17:09.972Z,26.28
2023-08-23T11:18:10.506Z,26.24
2023-08-23T11:19:09.513Z,26.21
2023-08-23T11:20:10.171Z,26.19
2023-08-23T11:21:09.654Z,26.17
2023-08-23T11:22:09.767Z,26.12
2023-08-23T11:23:10.961Z,26.06
2023-08-23T11:24:09.464Z,26.01
2023-08-23T11:25:09.449Z,25.98
2023-08-23T11:26:09.597Z,25.93
2023-08-23T11:27:08.595Z,25.98
2023-08-23T11:28:08.835Z,26.06
2023-08-23T11:29:08.780Z,26.23
2023-08-23T11:30:11.458Z,26.39
2023-08-23T11:31:09.222Z,26.46
2023-08-23T11:32:10.059Z,26.57
2023-08-23T11:33:08.609Z,26.69
2023-08-23T11:34:10.711Z,26.71
2023-08-23T11:35:09.182Z,26.81
2023-08-23T11:36:09.157Z,26.87
2023-08-23T11:37:10.574Z,26.90
2023-08-23T11:38:10.006Z,26.83
2023-08-23T11:39:09.504Z,26.88
2023-08-23T11:40:10.649Z,27.01
2023-08-23T11:41:10.689Z,27.12
2023-08-23T11:42:10.295Z,27.28
2023-08-23T11:43:20.696Z,27.40
2023-08-23T11:44:08.800Z,27.50
2023-08-23T11:45:11.049Z,27.46
2023-08-23T11:46:09.584Z,27.39
2023-08-23T11:47:08.754Z,27.27
2023-08-23T11:48:09.185Z,27.23
2023-08-23T11:49:10.223Z,27.16
2023-08-23T11:50:08.720Z,27.12
2023-08-23T11:51:09.370Z,27.06
2023-08-23T11:52:09.664Z,27.01
2023-08-23T11:53:10.920Z,26.98
2023-08-23T11:54:09.498Z,27.03
2023-08-23T11:55:09.631Z,27.09
2023-08-23T11:56:10.149Z,26.98
2023-08-23T11:57:09.777Z,27.06
2023-08-23T11:58:08.764Z,27.16
2023-08-23T11:59:08.792Z,27.31
2023-08-23T12:00:08.212Z,27.48
2023-08-23T12:01:10.179Z,27.50
2023-08-23T12:02:13.066Z,27.58
2023-08-23T12:03:10.218Z,27.68
2023-08-23T12:04:07.004Z,27.74
2023-08-23T12:05:09.825Z,27.80
2023-08-23T12:06:07.291Z,27.90
2023-08-23T12:07:10.988Z,28.02
2023-08-23T12:08:07.370Z,28.05
2023-08-23T12:09:09.565Z,27.90
2023-08-23T12:10:07.423Z,27.83
2023-08-23T12:11:10.325Z,27.74
2023-08-23T12:12:07.758Z,27.74
2023-08-23T12:13:08.281Z,27.84
2023-08-23T12:14:08.171Z,27.99
2023-08-23T12:15:10.584Z,28.13
2023-08-23T12:16:10.648Z,28.20
2023-08-23T12:17:07.000Z,28.30
2023-08-23T12:18:10.298Z,28.33
2023-08-23T12:19:25.448Z,28.33
2023-08-23T12:20:08.186Z,28.28
2023-08-23T12:21:09.157Z,28.36
2023-08-23T12:22:07.298Z,28.51
2023-08-23T12:23:07.976Z,28.64
2023-08-23T12:24:08.087Z,28.65
2023-08-23T12:25:07.516Z,28.69
2023-08-23T12:26:09.405Z,28.79
2023-08-23T12:27:06.212Z,28.79
2023-08-23T12:28:06.109Z,28.91
2023-08-23T12:29:06.897Z,29.02
2023-08-23T12:30:07.290Z,29.17
2023-08-23T12:31:06.209Z,29.10
2023-08-23T12:32:07.543Z,28.94
2023-08-23T12:33:06.316Z,28.72
2023-08-23T12:34:07.163Z,28.58
2023-08-23T12:35:07.114Z,28.51
2023-08-23T12:36:07.328Z,28.28
2023-08-23T12:37:07.398Z,28.13
2023-08-23T12:38:07.309Z,28.06
2023-08-23T12:39:05.977Z,28.08
2023-08-23T12:40:06.022Z,28.20
2023-08-23T12:41:06.508Z,28.15
2023-08-23T12:42:07.171Z,28.18
2023-08-23T12:43:06.035Z,28.17
2023-08-23T12:44:07.256Z,28.06
2023-08-23T12:45:07.342Z,28.05
2023-08-23T12:46:07.314Z,28.09
2023-08-23T12:47:06.962Z,28.06
2023-08-23T12:48:07.207Z,28.11
2023-08-23T12:49:07.156Z,28.20
2023-08-23T12:50:08.417Z,28.25
2023-08-23T12:51:07.763Z,28.36
2023-08-23T12:52:05.799Z,28.48